sensor_id;sensor_type;location;lat;lon;timestamp;P1;durP1;ratioP1;P2;durP2;ratioP2
65558;SDS011;52203;51.998;5.140;2023-05-10T00:01:27;29.45;;;13.25;;
65558;SDS011;52203;51.998;5.140;2023-05-10T00:03:52;32.03;;;13.77;;
65558;SDS011;52203;51.998;5.140;2023-05-10T00:06:18;34.45;;;15.60;;
65558;SDS011;52203;51.998;5.140;2023-05-10T00:08:44;39.35;;;15.20;;
65558;SDS011;52203;51.998;5.140;2023-05-10T00:11:10;36.47;;;14.85;;
65558;SDS011;52203;51.998;5.140;2023-05-10T00:13:36;36.13;;;13.43;;
65558;SDS011;52203;51.998;5.140;2023-05-10T00:16:01;36.17;;;14.65;;
65558;SDS011;52203;51.998;5.140;2023-05-10T00:18:27;34.15;;;15.18;;
65558;SDS011;52203;51.998;5.140;2023-05-10T00:20:52;34.85;;;14.13;;
65558;SDS011;52203;51.998;5.140;2023-05-10T00:23:18;40.47;;;15.23;;
65558;SDS011;52203;51.998;5.140;2023-05-10T00:25:43;40.53;;;15.70;;
65558;SDS011;52203;51.998;5.140;2023-05-10T00:28:09;38.10;;;14.82;;
65558;SDS011;52203;51.998;5.140;2023-05-10T00:30:35;38.60;;;14.60;;
65558;SDS011;52203;51.998;5.140;2023-05-10T00:33:00;37.72;;;14.32;;
65558;SDS011;52203;51.998;5.140;2023-05-10T00:35:26;37.10;;;14.82;;
65558;SDS011;52203;51.998;5.140;2023-05-10T00:37:51;39.72;;;15.02;;
65558;SDS011;52203;51.998;5.140;2023-05-10T00:40:17;37.65;;;14.93;;
65558;SDS011;52203;51.998;5.140;2023-05-10T00:42:42;41.20;;;14.65;;
65558;SDS011;52203;51.998;5.140;2023-05-10T00:45:08;39.55;;;15.02;;
65558;SDS011;52203;51.998;5.140;2023-05-10T00:47:34;38.22;;;15.70;;
65558;SDS011;52203;51.998;5.140;2023-05-10T00:49:59;41.17;;;15.85;;
65558;SDS011;52203;51.998;5.140;2023-05-10T00:52:26;42.15;;;16.77;;
65558;SDS011;52203;51.998;5.140;2023-05-10T00:54:52;39.35;;;16.08;;
65558;SDS011;52203;51.998;5.140;2023-05-10T00:57:19;39.20;;;15.45;;
65558;SDS011;52203;51.998;5.140;2023-05-10T00:59:45;41.20;;;17.05;;
65558;SDS011;52203;51.998;5.140;2023-05-10T01:02:11;38.13;;;15.07;;
65558;SDS011;52203;51.998;5.140;2023-05-10T01:04:38;41.72;;;14.93;;
65558;SDS011;52203;51.998;5.140;2023-05-10T01:07:04;48.97;;;16.35;;
65558;SDS011;52203;51.998;5.140;2023-05-10T01:09:30;43.97;;;16.52;;
65558;SDS011;52203;51.998;5.140;2023-05-10T01:11:56;42.53;;;16.00;;
65558;SDS011;52203;51.998;5.140;2023-05-10T01:14:23;44.03;;;16.27;;
65558;SDS011;52203;51.998;5.140;2023-05-10T01:16:49;45.60;;;17.50;;
65558;SDS011;52203;51.998;5.140;2023-05-10T01:19:26;43.55;;;17.83;;
65558;SDS011;52203;51.998;5.140;2023-05-10T01:24:45;43.35;;;16.98;;
65558;SDS011;52203;51.998;5.140;2023-05-10T01:35:26;40.97;;;16.52;;
65558;SDS011;52203;51.998;5.140;2023-05-10T01:41:05;55.65;;;19.95;;
65558;SDS011;52203;51.998;5.140;2023-05-10T01:43:55;55.03;;;20.58;;
65558;SDS011;52203;51.998;5.140;2023-05-10T01:46:43;58.10;;;22.17;;
65558;SDS011;52203;51.998;5.140;2023-05-10T01:49:44;61.38;;;22.67;;
65558;SDS011;52203;51.998;5.140;2023-05-10T01:52:10;60.13;;;23.38;;
65558;SDS011;52203;51.998;5.140;2023-05-10T01:54:38;62.42;;;22.85;;
65558;SDS011;52203;51.998;5.140;2023-05-10T01:57:19;58.63;;;23.40;;
65558;SDS011;52203;51.998;5.140;2023-05-10T01:59:47;68.20;;;23.40;;
65558;SDS011;52203;51.998;5.140;2023-05-10T02:02:15;61.58;;;22.10;;
65558;SDS011;52203;51.998;5.140;2023-05-10T02:04:43;61.97;;;21.88;;
65558;SDS011;52203;51.998;5.140;2023-05-10T02:07:10;63.80;;;22.45;;
65558;SDS011;52203;51.998;5.140;2023-05-10T02:09:37;63.03;;;22.27;;
65558;SDS011;52203;51.998;5.140;2023-05-10T02:12:03;63.72;;;20.88;;
65558;SDS011;52203;51.998;5.140;2023-05-10T02:14:32;60.45;;;22.15;;
65558;SDS011;52203;51.998;5.140;2023-05-10T02:17:00;54.90;;;19.95;;
65558;SDS011;52203;51.998;5.140;2023-05-10T02:19:29;57.85;;;20.60;;
65558;SDS011;52203;51.998;5.140;2023-05-10T02:21:57;62.17;;;21.05;;
65558;SDS011;52203;51.998;5.140;2023-05-10T02:24:24;58.83;;;20.55;;
65558;SDS011;52203;51.998;5.140;2023-05-10T02:26:51;51.60;;;18.85;;
65558;SDS011;52203;51.998;5.140;2023-05-10T02:29:19;53.85;;;18.52;;
65558;SDS011;52203;51.998;5.140;2023-05-10T02:31:48;52.80;;;19.58;;
65558;SDS011;52203;51.998;5.140;2023-05-10T02:34:16;49.60;;;19.35;;
65558;SDS011;52203;51.998;5.140;2023-05-10T02:36:43;46.33;;;18.00;;
65558;SDS011;52203;51.998;5.140;2023-05-10T02:39:08;50.75;;;18.98;;
65558;SDS011;52203;51.998;5.140;2023-05-10T02:41:37;49.75;;;17.77;;
65558;SDS011;52203;51.998;5.140;2023-05-10T02:44:05;49.47;;;17.52;;
65558;SDS011;52203;51.998;5.140;2023-05-10T02:46:33;49.83;;;17.42;;
65558;SDS011;52203;51.998;5.140;2023-05-10T02:48:59;48.05;;;19.02;;
65558;SDS011;52203;51.998;5.140;2023-05-10T02:51:26;48.67;;;17.60;;
65558;SDS011;52203;51.998;5.140;2023-05-10T02:53:56;45.05;;;17.55;;
65558;SDS011;52203;51.998;5.140;2023-05-10T02:56:25;47.97;;;18.50;;
65558;SDS011;52203;51.998;5.140;2023-05-10T02:58:55;49.50;;;18.15;;
65558;SDS011;52203;51.998;5.140;2023-05-10T03:01:21;48.50;;;17.70;;
65558;SDS011;52203;51.998;5.140;2023-05-10T03:03:46;45.20;;;17.27;;
65558;SDS011;52203;51.998;5.140;2023-05-10T03:06:12;43.50;;;16.27;;
65558;SDS011;52203;51.998;5.140;2023-05-10T03:08:38;48.97;;;18.23;;
65558;SDS011;52203;51.998;5.140;2023-05-10T03:13:48;44.60;;;16.40;;
65558;SDS011;52203;51.998;5.140;2023-05-10T03:16:46;41.92;;;15.77;;
65558;SDS011;52203;51.998;5.140;2023-05-10T03:19:22;43.83;;;16.17;;
65558;SDS011;52203;51.998;5.140;2023-05-10T03:21:53;39.63;;;15.90;;
65558;SDS011;52203;51.998;5.140;2023-05-10T03:24:20;46.17;;;16.98;;
65558;SDS011;52203;51.998;5.140;2023-05-10T03:26:48;44.60;;;16.15;;
65558;SDS011;52203;51.998;5.140;2023-05-10T03:29:15;48.40;;;16.88;;
65558;SDS011;52203;51.998;5.140;2023-05-10T03:31:42;50.55;;;17.42;;
65558;SDS011;52203;51.998;5.140;2023-05-10T03:34:08;47.55;;;17.02;;
65558;SDS011;52203;51.998;5.140;2023-05-10T03:36:33;49.63;;;18.67;;
65558;SDS011;52203;51.998;5.140;2023-05-10T03:38:59;47.53;;;17.77;;
65558;SDS011;52203;51.998;5.140;2023-05-10T03:41:24;50.97;;;18.85;;
65558;SDS011;52203;51.998;5.140;2023-05-10T03:43:50;52.65;;;18.88;;
65558;SDS011;52203;51.998;5.140;2023-05-10T03:46:16;46.67;;;18.23;;
65558;SDS011;52203;51.998;5.140;2023-05-10T03:48:42;54.35;;;19.83;;
65558;SDS011;52203;51.998;5.140;2023-05-10T03:51:07;48.88;;;19.25;;
65558;SDS011;52203;51.998;5.140;2023-05-10T03:53:33;49.92;;;18.00;;
65558;SDS011;52203;51.998;5.140;2023-05-10T03:55:59;59.67;;;19.55;;
65558;SDS011;52203;51.998;5.140;2023-05-10T03:58:24;53.63;;;19.60;;
65558;SDS011;52203;51.998;5.140;2023-05-10T04:00:50;54.28;;;20.35;;
65558;SDS011;52203;51.998;5.140;2023-05-10T04:03:16;50.30;;;19.17;;
65558;SDS011;52203;51.998;5.140;2023-05-10T04:05:42;53.33;;;19.75;;
65558;SDS011;52203;51.998;5.140;2023-05-10T04:08:08;58.47;;;21.08;;
65558;SDS011;52203;51.998;5.140;2023-05-10T04:10:33;54.05;;;19.73;;
65558;SDS011;52203;51.998;5.140;2023-05-10T04:12:59;55.17;;;20.48;;
65558;SDS011;52203;51.998;5.140;2023-05-10T04:15:25;51.15;;;19.05;;
65558;SDS011;52203;51.998;5.140;2023-05-10T04:17:50;53.60;;;21.13;;
65558;SDS011;52203;51.998;5.140;2023-05-10T04:20:16;54.20;;;19.13;;
65558;SDS011;52203;51.998;5.140;2023-05-10T04:22:42;59.40;;;19.58;;
65558;SDS011;52203;51.998;5.140;2023-05-10T04:25:07;56.97;;;22.48;;
65558;SDS011;52203;51.998;5.140;2023-05-10T04:27:33;57.80;;;20.38;;
65558;SDS011;52203;51.998;5.140;2023-05-10T04:29:59;59.70;;;20.90;;
65558;SDS011;52203;51.998;5.140;2023-05-10T04:32:24;59.75;;;20.90;;
65558;SDS011;52203;51.998;5.140;2023-05-10T04:34:50;58.65;;;21.60;;
65558;SDS011;52203;51.998;5.140;2023-05-10T04:37:16;57.70;;;20.65;;
65558;SDS011;52203;51.998;5.140;2023-05-10T04:39:42;60.10;;;21.25;;
65558;SDS011;52203;51.998;5.140;2023-05-10T04:42:07;64.45;;;20.88;;
65558;SDS011;52203;51.998;5.140;2023-05-10T04:44:33;61.20;;;20.00;;
65558;SDS011;52203;51.998;5.140;2023-05-10T04:46:58;64.15;;;22.98;;
65558;SDS011;52203;51.998;5.140;2023-05-10T04:49:24;65.22;;;22.05;;
65558;SDS011;52203;51.998;5.140;2023-05-10T04:51:49;63.28;;;21.10;;
65558;SDS011;52203;51.998;5.140;2023-05-10T04:54:15;61.10;;;20.38;;
65558;SDS011;52203;51.998;5.140;2023-05-10T04:56:40;62.38;;;22.23;;
65558;SDS011;52203;51.998;5.140;2023-05-10T04:59:06;57.65;;;20.73;;
65558;SDS011;52203;51.998;5.140;2023-05-10T05:01:32;59.08;;;22.02;;
65558;SDS011;52203;51.998;5.140;2023-05-10T05:03:57;57.33;;;21.70;;
65558;SDS011;52203;51.998;5.140;2023-05-10T05:06:23;62.70;;;22.75;;
65558;SDS011;52203;51.998;5.140;2023-05-10T05:08:50;55.47;;;22.77;;
65558;SDS011;52203;51.998;5.140;2023-05-10T05:11:16;59.97;;;23.45;;
65558;SDS011;52203;51.998;5.140;2023-05-10T05:13:42;65.57;;;23.52;;
65558;SDS011;52203;51.998;5.140;2023-05-10T05:16:07;61.40;;;23.50;;
65558;SDS011;52203;51.998;5.140;2023-05-10T05:18:33;54.85;;;21.90;;
65558;SDS011;52203;51.998;5.140;2023-05-10T05:20:58;56.40;;;23.77;;
65558;SDS011;52203;51.998;5.140;2023-05-10T05:23:24;65.75;;;25.30;;
65558;SDS011;52203;51.998;5.140;2023-05-10T05:25:51;59.38;;;25.20;;
65558;SDS011;52203;51.998;5.140;2023-05-10T05:28:17;58.78;;;24.25;;
65558;SDS011;52203;51.998;5.140;2023-05-10T05:30:43;66.10;;;24.45;;
65558;SDS011;52203;51.998;5.140;2023-05-10T05:33:08;56.45;;;22.83;;
65558;SDS011;52203;51.998;5.140;2023-05-10T05:35:34;61.90;;;25.42;;
65558;SDS011;52203;51.998;5.140;2023-05-10T05:37:59;67.22;;;24.98;;
65558;SDS011;52203;51.998;5.140;2023-05-10T05:40:25;60.55;;;23.50;;
65558;SDS011;52203;51.998;5.140;2023-05-10T05:42:50;65.30;;;23.48;;
65558;SDS011;52203;51.998;5.140;2023-05-10T05:45:16;60.65;;;23.23;;
65558;SDS011;52203;51.998;5.140;2023-05-10T05:47:41;57.55;;;22.48;;
65558;SDS011;52203;51.998;5.140;2023-05-10T05:50:07;59.65;;;24.70;;
65558;SDS011;52203;51.998;5.140;2023-05-10T05:52:34;64.65;;;25.15;;
65558;SDS011;52203;51.998;5.140;2023-05-10T05:55:00;61.30;;;23.92;;
65558;SDS011;52203;51.998;5.140;2023-05-10T05:57:26;58.42;;;24.45;;
65558;SDS011;52203;51.998;5.140;2023-05-10T05:59:52;57.45;;;23.85;;
65558;SDS011;52203;51.998;5.140;2023-05-10T06:02:17;61.55;;;22.55;;
65558;SDS011;52203;51.998;5.140;2023-05-10T06:04:43;55.70;;;22.15;;
65558;SDS011;52203;51.998;5.140;2023-05-10T06:07:08;55.00;;;22.45;;
65558;SDS011;52203;51.998;5.140;2023-05-10T06:09:34;56.45;;;21.95;;
65558;SDS011;52203;51.998;5.140;2023-05-10T06:11:59;59.83;;;22.63;;
65558;SDS011;52203;51.998;5.140;2023-05-10T06:14:25;56.95;;;21.65;;
65558;SDS011;52203;51.998;5.140;2023-05-10T06:16:50;58.17;;;20.48;;
65558;SDS011;52203;51.998;5.140;2023-05-10T06:19:16;54.97;;;20.33;;
65558;SDS011;52203;51.998;5.140;2023-05-10T06:21:41;54.30;;;20.00;;
65558;SDS011;52203;51.998;5.140;2023-05-10T06:24:07;55.08;;;20.38;;
65558;SDS011;52203;51.998;5.140;2023-05-10T06:26:32;42.75;;;16.17;;
65558;SDS011;52203;51.998;5.140;2023-05-10T06:28:58;46.78;;;18.65;;
65558;SDS011;52203;51.998;5.140;2023-05-10T06:31:24;46.70;;;16.05;;
65558;SDS011;52203;51.998;5.140;2023-05-10T06:33:49;36.85;;;14.68;;
65558;SDS011;52203;51.998;5.140;2023-05-10T06:36:15;36.78;;;14.57;;
65558;SDS011;52203;51.998;5.140;2023-05-10T06:38:40;36.65;;;14.43;;
65558;SDS011;52203;51.998;5.140;2023-05-10T06:41:05;35.40;;;13.35;;
65558;SDS011;52203;51.998;5.140;2023-05-10T06:43:31;31.55;;;13.95;;
65558;SDS011;52203;51.998;5.140;2023-05-10T06:45:57;33.88;;;12.95;;
65558;SDS011;52203;51.998;5.140;2023-05-10T06:48:22;26.67;;;11.98;;
65558;SDS011;52203;51.998;5.140;2023-05-10T06:50:48;29.13;;;12.25;;
65558;SDS011;52203;51.998;5.140;2023-05-10T06:53:14;29.85;;;12.40;;
65558;SDS011;52203;51.998;5.140;2023-05-10T06:55:40;28.65;;;11.95;;
65558;SDS011;52203;51.998;5.140;2023-05-10T06:58:06;26.75;;;11.30;;
65558;SDS011;52203;51.998;5.140;2023-05-10T07:00:31;27.48;;;10.73;;
65558;SDS011;52203;51.998;5.140;2023-05-10T07:02:57;26.83;;;11.02;;
65558;SDS011;52203;51.998;5.140;2023-05-10T07:05:23;24.20;;;10.50;;
65558;SDS011;52203;51.998;5.140;2023-05-10T07:07:49;27.02;;;10.45;;
65558;SDS011;52203;51.998;5.140;2023-05-10T07:10:14;23.92;;;10.55;;
65558;SDS011;52203;51.998;5.140;2023-05-10T07:12:40;22.50;;;9.27;;
65558;SDS011;52203;51.998;5.140;2023-05-10T07:15:06;24.20;;;9.10;;
65558;SDS011;52203;51.998;5.140;2023-05-10T07:17:32;21.38;;;8.65;;
65558;SDS011;52203;51.998;5.140;2023-05-10T07:19:58;17.88;;;7.78;;
65558;SDS011;52203;51.998;5.140;2023-05-10T07:22:24;20.35;;;7.53;;
65558;SDS011;52203;51.998;5.140;2023-05-10T07:24:50;18.98;;;8.50;;
65558;SDS011;52203;51.998;5.140;2023-05-10T07:27:15;17.05;;;8.00;;
65558;SDS011;52203;51.998;5.140;2023-05-10T07:29:41;19.80;;;7.55;;
65558;SDS011;52203;51.998;5.140;2023-05-10T07:32:07;16.08;;;6.70;;
65558;SDS011;52203;51.998;5.140;2023-05-10T07:34:32;18.05;;;7.55;;
65558;SDS011;52203;51.998;5.140;2023-05-10T07:36:58;19.13;;;7.00;;
65558;SDS011;52203;51.998;5.140;2023-05-10T07:39:25;19.20;;;7.97;;
65558;SDS011;52203;51.998;5.140;2023-05-10T07:41:51;20.25;;;8.52;;
65558;SDS011;52203;51.998;5.140;2023-05-10T07:44:16;19.00;;;7.47;;
65558;SDS011;52203;51.998;5.140;2023-05-10T07:46:44;16.85;;;6.95;;
65558;SDS011;52203;51.998;5.140;2023-05-10T07:49:09;16.50;;;6.57;;
65558;SDS011;52203;51.998;5.140;2023-05-10T07:51:35;17.02;;;7.00;;
65558;SDS011;52203;51.998;5.140;2023-05-10T07:54:01;16.75;;;6.88;;
65558;SDS011;52203;51.998;5.140;2023-05-10T07:56:28;14.32;;;6.43;;
65558;SDS011;52203;51.998;5.140;2023-05-10T07:58:58;15.45;;;6.85;;
65558;SDS011;52203;51.998;5.140;2023-05-10T08:01:24;13.50;;;5.95;;
65558;SDS011;52203;51.998;5.140;2023-05-10T08:03:51;14.35;;;6.22;;
65558;SDS011;52203;51.998;5.140;2023-05-10T08:06:18;11.98;;;6.03;;
65558;SDS011;52203;51.998;5.140;2023-05-10T08:08:45;13.30;;;5.90;;
65558;SDS011;52203;51.998;5.140;2023-05-10T08:11:14;15.45;;;6.30;;
65558;SDS011;52203;51.998;5.140;2023-05-10T08:13:43;15.85;;;6.05;;
65558;SDS011;52203;51.998;5.140;2023-05-10T08:16:10;11.93;;;4.97;;
65558;SDS011;52203;51.998;5.140;2023-05-10T08:18:35;13.88;;;5.60;;
65558;SDS011;52203;51.998;5.140;2023-05-10T08:21:01;10.70;;;5.07;;
65558;SDS011;52203;51.998;5.140;2023-05-10T08:23:27;17.38;;;5.53;;
65558;SDS011;52203;51.998;5.140;2023-05-10T08:25:52;11.43;;;5.47;;
65558;SDS011;52203;51.998;5.140;2023-05-10T08:28:18;11.55;;;5.45;;
65558;SDS011;52203;51.998;5.140;2023-05-10T08:30:43;12.90;;;5.55;;
65558;SDS011;52203;51.998;5.140;2023-05-10T08:33:09;11.40;;;5.72;;
65558;SDS011;52203;51.998;5.140;2023-05-10T08:35:34;12.30;;;5.45;;
65558;SDS011;52203;51.998;5.140;2023-05-10T08:38:00;12.05;;;5.60;;
65558;SDS011;52203;51.998;5.140;2023-05-10T08:40:26;8.90;;;4.70;;
65558;SDS011;52203;51.998;5.140;2023-05-10T08:43:08;14.13;;;6.32;;
65558;SDS011;52203;51.998;5.140;2023-05-10T08:45:39;11.32;;;5.15;;
65558;SDS011;52203;51.998;5.140;2023-05-10T08:48:07;11.88;;;5.18;;
65558;SDS011;52203;51.998;5.140;2023-05-10T08:50:35;10.20;;;4.75;;
65558;SDS011;52203;51.998;5.140;2023-05-10T08:53:03;12.23;;;5.20;;
65558;SDS011;52203;51.998;5.140;2023-05-10T08:55:31;11.18;;;5.20;;
65558;SDS011;52203;51.998;5.140;2023-05-10T08:57:59;10.65;;;4.53;;
65558;SDS011;52203;51.998;5.140;2023-05-10T09:00:25;11.95;;;4.90;;
65558;SDS011;52203;51.998;5.140;2023-05-10T09:02:51;10.60;;;5.10;;
65558;SDS011;52203;51.998;5.140;2023-05-10T09:05:17;9.65;;;4.40;;
65558;SDS011;52203;51.998;5.140;2023-05-10T09:07:43;7.82;;;4.05;;
65558;SDS011;52203;51.998;5.140;2023-05-10T09:10:09;11.32;;;5.00;;
65558;SDS011;52203;51.998;5.140;2023-05-10T09:12:36;8.95;;;4.30;;
65558;SDS011;52203;51.998;5.140;2023-05-10T09:15:02;10.35;;;4.90;;
65558;SDS011;52203;51.998;5.140;2023-05-10T09:17:29;9.70;;;4.72;;
65558;SDS011;52203;51.998;5.140;2023-05-10T09:20:04;10.25;;;4.80;;
65558;SDS011;52203;51.998;5.140;2023-05-10T09:22:30;8.75;;;4.50;;
65558;SDS011;52203;51.998;5.140;2023-05-10T09:25:03;8.45;;;4.07;;
65558;SDS011;52203;51.998;5.140;2023-05-10T09:27:39;11.48;;;5.18;;
65558;SDS011;52203;51.998;5.140;2023-05-10T09:30:06;9.07;;;4.20;;
65558;SDS011;52203;51.998;5.140;2023-05-10T09:32:39;8.70;;;4.20;;
65558;SDS011;52203;51.998;5.140;2023-05-10T09:35:06;9.90;;;3.92;;
65558;SDS011;52203;51.998;5.140;2023-05-10T09:37:35;8.05;;;4.38;;
65558;SDS011;52203;51.998;5.140;2023-05-10T09:40:03;7.70;;;3.50;;
65558;SDS011;52203;51.998;5.140;2023-05-10T09:42:30;7.43;;;4.03;;
65558;SDS011;52203;51.998;5.140;2023-05-10T09:44:59;8.60;;;3.85;;
65558;SDS011;52203;51.998;5.140;2023-05-10T09:47:26;7.80;;;3.65;;
65558;SDS011;52203;51.998;5.140;2023-05-10T09:49:52;6.63;;;3.30;;
65558;SDS011;52203;51.998;5.140;2023-05-10T09:52:20;8.18;;;3.75;;
65558;SDS011;52203;51.998;5.140;2023-05-10T09:54:52;9.85;;;4.82;;
65558;SDS011;52203;51.998;5.140;2023-05-10T09:57:22;9.90;;;4.43;;
65558;SDS011;52203;51.998;5.140;2023-05-10T09:59:49;8.52;;;4.07;;
65558;SDS011;52203;51.998;5.140;2023-05-10T10:02:15;7.78;;;4.22;;
65558;SDS011;52203;51.998;5.140;2023-05-10T10:04:41;6.55;;;3.58;;
65558;SDS011;52203;51.998;5.140;2023-05-10T10:07:08;7.55;;;4.30;;
65558;SDS011;52203;51.998;5.140;2023-05-10T10:09:34;7.78;;;3.30;;
65558;SDS011;52203;51.998;5.140;2023-05-10T10:12:03;7.45;;;3.95;;
65558;SDS011;52203;51.998;5.140;2023-05-10T10:14:29;8.52;;;4.28;;
65558;SDS011;52203;51.998;5.140;2023-05-10T10:16:55;7.45;;;3.65;;
65558;SDS011;52203;51.998;5.140;2023-05-10T10:19:21;6.75;;;3.63;;
65558;SDS011;52203;51.998;5.140;2023-05-10T10:21:47;7.70;;;3.80;;
65558;SDS011;52203;51.998;5.140;2023-05-10T10:24:14;9.10;;;3.97;;
65558;SDS011;52203;51.998;5.140;2023-05-10T10:26:40;9.30;;;3.97;;
65558;SDS011;52203;51.998;5.140;2023-05-10T10:29:24;7.57;;;3.28;;
65558;SDS011;52203;51.998;5.140;2023-05-10T10:32:03;8.93;;;3.88;;
65558;SDS011;52203;51.998;5.140;2023-05-10T10:34:49;6.80;;;3.35;;
65558;SDS011;52203;51.998;5.140;2023-05-10T10:37:15;11.00;;;5.30;;
65558;SDS011;52203;51.998;5.140;2023-05-10T10:39:40;10.15;;;5.00;;
65558;SDS011;52203;51.998;5.140;2023-05-10T10:42:06;8.77;;;4.32;;
65558;SDS011;52203;51.998;5.140;2023-05-10T10:47:06;8.90;;;4.25;;
65558;SDS011;52203;51.998;5.140;2023-05-10T10:55:07;9.73;;;4.60;;
65558;SDS011;52203;51.998;5.140;2023-05-10T10:57:51;8.07;;;4.60;;
65558;SDS011;52203;51.998;5.140;2023-05-10T11:00:21;10.43;;;4.88;;
65558;SDS011;52203;51.998;5.140;2023-05-10T11:03:09;7.75;;;4.53;;
65558;SDS011;52203;51.998;5.140;2023-05-10T11:05:47;10.00;;;4.53;;
65558;SDS011;52203;51.998;5.140;2023-05-10T11:08:26;8.50;;;4.38;;
65558;SDS011;52203;51.998;5.140;2023-05-10T11:13:28;8.25;;;4.13;;
65558;SDS011;52203;51.998;5.140;2023-05-10T11:20:51;9.55;;;4.55;;
65558;SDS011;52203;51.998;5.140;2023-05-10T11:23:21;8.30;;;4.03;;
65558;SDS011;52203;51.998;5.140;2023-05-10T11:25:47;8.20;;;4.60;;
65558;SDS011;52203;51.998;5.140;2023-05-10T11:28:16;9.88;;;4.30;;
65558;SDS011;52203;51.998;5.140;2023-05-10T11:30:43;7.95;;;4.60;;
65558;SDS011;52203;51.998;5.140;2023-05-10T11:33:14;7.95;;;4.40;;
65558;SDS011;52203;51.998;5.140;2023-05-10T11:35:41;9.68;;;4.68;;
65558;SDS011;52203;51.998;5.140;2023-05-10T11:38:09;10.73;;;6.07;;
65558;SDS011;52203;51.998;5.140;2023-05-10T11:40:36;10.68;;;6.80;;
65558;SDS011;52203;51.998;5.140;2023-05-10T11:43:02;10.25;;;6.50;;
65558;SDS011;52203;51.998;5.140;2023-05-10T11:45:29;12.57;;;7.07;;
65558;SDS011;52203;51.998;5.140;2023-05-10T11:47:57;9.10;;;6.32;;
65558;SDS011;52203;51.998;5.140;2023-05-10T11:50:23;8.35;;;6.15;;
65558;SDS011;52203;51.998;5.140;2023-05-10T11:52:54;7.72;;;5.03;;
65558;SDS011;52203;51.998;5.140;2023-05-10T11:55:21;6.60;;;4.35;;
65558;SDS011;52203;51.998;5.140;2023-05-10T11:57:51;6.10;;;3.60;;
65558;SDS011;52203;51.998;5.140;2023-05-10T12:00:18;6.35;;;4.32;;
65558;SDS011;52203;51.998;5.140;2023-05-10T12:02:43;6.88;;;4.43;;
65558;SDS011;52203;51.998;5.140;2023-05-10T12:05:09;7.25;;;3.50;;
65558;SDS011;52203;51.998;5.140;2023-05-10T12:07:35;6.25;;;4.30;;
65558;SDS011;52203;51.998;5.140;2023-05-10T12:15:04;6.78;;;3.83;;
65558;SDS011;52203;51.998;5.140;2023-05-10T12:17:31;5.45;;;3.58;;
65558;SDS011;52203;51.998;5.140;2023-05-10T12:22:46;7.70;;;4.57;;
65558;SDS011;52203;51.998;5.140;2023-05-10T12:25:12;9.80;;;6.35;;
65558;SDS011;52203;51.998;5.140;2023-05-10T12:27:38;9.55;;;6.40;;
65558;SDS011;52203;51.998;5.140;2023-05-10T12:30:04;10.95;;;6.82;;
65558;SDS011;52203;51.998;5.140;2023-05-10T12:32:39;10.27;;;6.75;;
65558;SDS011;52203;51.998;5.140;2023-05-10T12:35:05;13.05;;;7.13;;
65558;SDS011;52203;51.998;5.140;2023-05-10T12:37:31;11.93;;;7.38;;
65558;SDS011;52203;51.998;5.140;2023-05-10T12:40:00;11.13;;;6.35;;
65558;SDS011;52203;51.998;5.140;2023-05-10T12:42:27;13.00;;;6.50;;
65558;SDS011;52203;51.998;5.140;2023-05-10T12:44:57;11.02;;;5.43;;
65558;SDS011;52203;51.998;5.140;2023-05-10T12:47:23;10.65;;;5.35;;
65558;SDS011;52203;51.998;5.140;2023-05-10T12:49:48;12.77;;;6.22;;
65558;SDS011;52203;51.998;5.140;2023-05-10T12:52:14;14.38;;;6.80;;
65558;SDS011;52203;51.998;5.140;2023-05-10T12:54:39;12.85;;;6.57;;
65558;SDS011;52203;51.998;5.140;2023-05-10T12:57:05;17.17;;;7.60;;
65558;SDS011;52203;51.998;5.140;2023-05-10T12:59:30;13.98;;;7.55;;
65558;SDS011;52203;51.998;5.140;2023-05-10T13:01:56;14.05;;;6.43;;
65558;SDS011;52203;51.998;5.140;2023-05-10T13:04:22;14.75;;;6.60;;
65558;SDS011;52203;51.998;5.140;2023-05-10T13:06:48;13.50;;;6.22;;
65558;SDS011;52203;51.998;5.140;2023-05-10T13:09:13;14.70;;;6.40;;
65558;SDS011;52203;51.998;5.140;2023-05-10T13:11:39;14.98;;;6.53;;
65558;SDS011;52203;51.998;5.140;2023-05-10T13:14:05;13.45;;;6.57;;
65558;SDS011;52203;51.998;5.140;2023-05-10T13:16:30;15.15;;;6.07;;
65558;SDS011;52203;51.998;5.140;2023-05-10T13:18:56;12.40;;;6.60;;
65558;SDS011;52203;51.998;5.140;2023-05-10T13:21:22;12.32;;;6.53;;
65558;SDS011;52203;51.998;5.140;2023-05-10T13:23:49;14.93;;;6.20;;
65558;SDS011;52203;51.998;5.140;2023-05-10T13:26:14;11.85;;;5.97;;
65558;SDS011;52203;51.998;5.140;2023-05-10T13:28:40;11.77;;;6.53;;
65558;SDS011;52203;51.998;5.140;2023-05-10T13:31:05;15.05;;;6.15;;
65558;SDS011;52203;51.998;5.140;2023-05-10T13:33:31;12.90;;;6.75;;
65558;SDS011;52203;51.998;5.140;2023-05-10T13:35:57;14.70;;;7.20;;
65558;SDS011;52203;51.998;5.140;2023-05-10T13:38:22;16.50;;;7.70;;
65558;SDS011;52203;51.998;5.140;2023-05-10T13:40:48;13.60;;;6.40;;
65558;SDS011;52203;51.998;5.140;2023-05-10T13:43:17;14.63;;;7.18;;
65558;SDS011;52203;51.998;5.140;2023-05-10T13:45:43;14.30;;;7.40;;
65558;SDS011;52203;51.998;5.140;2023-05-10T13:48:09;13.85;;;6.72;;
65558;SDS011;52203;51.998;5.140;2023-05-10T13:50:34;14.93;;;7.07;;
65558;SDS011;52203;51.998;5.140;2023-05-10T13:53:00;13.55;;;6.63;;
65558;SDS011;52203;51.998;5.140;2023-05-10T13:55:25;18.83;;;7.65;;
65558;SDS011;52203;51.998;5.140;2023-05-10T13:57:51;16.83;;;7.40;;
65558;SDS011;52203;51.998;5.140;2023-05-10T14:00:16;15.98;;;7.15;;
65558;SDS011;52203;51.998;5.140;2023-05-10T14:02:42;13.88;;;7.07;;
65558;SDS011;52203;51.998;5.140;2023-05-10T14:05:08;14.90;;;7.25;;
65558;SDS011;52203;51.998;5.140;2023-05-10T14:07:34;13.07;;;6.78;;
65558;SDS011;52203;51.998;5.140;2023-05-10T14:09:59;15.23;;;7.05;;
65558;SDS011;52203;51.998;5.140;2023-05-10T14:12:25;12.32;;;6.60;;
65558;SDS011;52203;51.998;5.140;2023-05-10T14:14:51;17.05;;;6.95;;
65558;SDS011;52203;51.998;5.140;2023-05-10T14:17:17;17.33;;;7.68;;
65558;SDS011;52203;51.998;5.140;2023-05-10T14:19:42;16.27;;;8.02;;
65558;SDS011;52203;51.998;5.140;2023-05-10T14:22:08;13.00;;;6.57;;
65558;SDS011;52203;51.998;5.140;2023-05-10T14:24:33;15.35;;;7.43;;
65558;SDS011;52203;51.998;5.140;2023-05-10T14:26:59;14.77;;;8.35;;
65558;SDS011;52203;51.998;5.140;2023-05-10T14:29:25;16.30;;;7.53;;
65558;SDS011;52203;51.998;5.140;2023-05-10T14:31:51;14.90;;;7.72;;
65558;SDS011;52203;51.998;5.140;2023-05-10T14:34:16;16.30;;;7.60;;
65558;SDS011;52203;51.998;5.140;2023-05-10T14:36:42;17.13;;;7.75;;
65558;SDS011;52203;51.998;5.140;2023-05-10T14:39:07;15.10;;;6.70;;
65558;SDS011;52203;51.998;5.140;2023-05-10T14:41:35;14.35;;;6.72;;
65558;SDS011;52203;51.998;5.140;2023-05-10T14:44:00;14.23;;;6.60;;
65558;SDS011;52203;51.998;5.140;2023-05-10T14:46:28;13.30;;;6.30;;
65558;SDS011;52203;51.998;5.140;2023-05-10T14:48:54;14.02;;;6.90;;
65558;SDS011;52203;51.998;5.140;2023-05-10T14:51:20;13.43;;;6.03;;
65558;SDS011;52203;51.998;5.140;2023-05-10T14:53:47;14.88;;;7.03;;
65558;SDS011;52203;51.998;5.140;2023-05-10T14:56:14;14.93;;;6.97;;
65558;SDS011;52203;51.998;5.140;2023-05-10T14:58:39;15.00;;;7.07;;
65558;SDS011;52203;51.998;5.140;2023-05-10T15:01:05;16.05;;;6.63;;
65558;SDS011;52203;51.998;5.140;2023-05-10T15:03:30;13.30;;;6.88;;
65558;SDS011;52203;51.998;5.140;2023-05-10T15:05:56;14.55;;;7.80;;
65558;SDS011;52203;51.998;5.140;2023-05-10T15:08:23;13.07;;;6.90;;
65558;SDS011;52203;51.998;5.140;2023-05-10T15:10:49;14.23;;;7.05;;